createdAt,value
2018-02-14T00:00:54.950Z,41.10
2018-02-14T00:03:29.390Z,41.10
2018-02-14T00:06:03.285Z,41.00
2018-02-14T00:08:37.041Z,41.00
2018-02-14T00:11:10.835Z,42.10
2018-02-14T00:13:45.987Z,41.00
2018-02-14T00:16:19.779Z,41.00
2018-02-14T00:18:53.499Z,41.60
2018-02-14T00:21:29.500Z,41.90
2018-02-14T00:24:03.796Z,42.10
2018-02-14T00:26:37.555Z,42.60
2018-02-14T00:29:12.079Z,43.10
2018-02-14T00:31:46.950Z,44.20
2018-02-14T00:34:20.738Z,44.20
2018-02-14T00:36:54.476Z,43.90
2018-02-14T00:39:30.873Z,43.50
2018-02-14T00:42:04.575Z,43.20
2018-02-14T00:44:38.404Z,43.00
2018-02-14T00:47:12.420Z,42.90
2018-02-14T00:49:46.908Z,43.90
2018-02-14T00:52:21.673Z,43.80
2018-02-14T00:54:56.163Z,43.30
2018-02-14T00:57:29.897Z,43.30
2018-02-14T01:00:03.687Z,43.50
2018-02-14T01:02:37.410Z,43.90
2018-02-14T01:05:11.200Z,43.80
2018-02-14T01:07:45.004Z,43.90
2018-02-14T01:10:19.393Z,45.10
2018-02-14T01:12:54.100Z,45.70
2018-02-14T01:15:29.691Z,45.50
2018-02-14T01:18:04.116Z,45.90
2018-02-14T01:20:43.475Z,46.60
2018-02-14T01:23:17.142Z,46.50
2018-02-14T01:25:50.899Z,46.30
2018-02-14T01:28:25.489Z,46.40
2018-02-14T01:30:59.229Z,46.40
2018-02-14T01:33:32.934Z,46.60
2018-02-14T01:36:07.457Z,46.70
2018-02-14T01:38:41.124Z,46.60
2018-02-14T01:41:14.907Z,46.80
2018-02-14T01:43:49.295Z,46.60
2018-02-14T01:46:22.994Z,46.90
2018-02-14T01:48:57.809Z,47.30
2018-02-14T01:51:33.180Z,47.80
2018-02-14T01:54:06.955Z,47.80
2018-02-14T01:56:40.916Z,47.80
2018-02-14T01:59:14.728Z,47.70
2018-02-14T02:01:48.360Z,48.00
2018-02-14T02:04:22.797Z,48.30
2018-02-14T02:06:56.496Z,48.90
2018-02-14T02:09:30.223Z,48.90
2018-02-14T02:12:04.832Z,50.40
2018-02-14T02:14:39.096Z,50.00
2018-02-14T02:17:12.880Z,50.80
2018-02-14T02:19:46.669Z,50.40
2018-02-14T02:22:21.928Z,49.10
2018-02-14T02:24:55.557Z,48.80
2018-02-14T02:27:33.252Z,48.30
2018-02-14T02:30:06.931Z,48.30
2018-02-14T02:32:40.595Z,47.90
2018-02-14T02:35:14.464Z,47.60
2018-02-14T02:37:48.328Z,48.90
2018-02-14T02:40:31.075Z,48.30
2018-02-14T02:43:04.913Z,48.10
2018-02-14T02:45:41.141Z,48.40
2018-02-14T02:48:14.934Z,48.50
2018-02-14T02:50:49.282Z,49.60
2018-02-14T02:53:23.044Z,49.60
2018-02-14T02:55:56.773Z,50.00
2018-02-14T02:58:31.390Z,50.10
2018-02-14T03:01:05.285Z,50.10
2018-02-14T03:03:39.839Z,50.20
2018-02-14T03:06:13.622Z,50.20
2018-02-14T03:08:47.601Z,50.80
2018-02-14T03:11:21.372Z,51.80
2018-02-14T03:13:55.173Z,53.40
2018-02-14T03:16:28.982Z,54.50
2018-02-14T03:19:02.691Z,54.90
2018-02-14T03:21:36.469Z,55.70
2018-02-14T03:24:12.109Z,56.60
2018-02-14T03:26:46.802Z,57.40
2018-02-14T03:29:21.690Z,57.40
2018-02-14T03:31:55.572Z,58.10
2018-02-14T03:34:29.779Z,57.90
2018-02-14T03:37:03.628Z,58.10
2018-02-14T03:39:38.379Z,58.90
2018-02-14T03:42:13.805Z,59.30
2018-02-14T03:44:47.415Z,60.00
2018-02-14T03:47:22.201Z,60.10
2018-02-14T03:49:58.818Z,60.50
2018-02-14T03:52:33.603Z,60.20
2018-02-14T03:55:08.990Z,60.30
2018-02-14T03:57:42.588Z,61.00
2018-02-14T04:00:16.404Z,61.80
2018-02-14T04:02:50.157Z,62.40
2018-02-14T04:05:25.484Z,63.30
2018-02-14T04:07:59.267Z,64.40
2018-02-14T04:10:33.165Z,65.40
2018-02-14T04:13:11.347Z,65.80
2018-02-14T04:15:45.426Z,65.70
2018-02-14T04:18:20.214Z,65.90
2018-02-14T04:20:55.545Z,66.50
2018-02-14T04:23:29.284Z,67.10
2018-02-14T04:26:04.241Z,67.50
2018-02-14T04:28:38.710Z,67.90
2018-02-14T04:31:13.724Z,67.70
2018-02-14T04:33:48.220Z,67.60
2018-02-14T04:36:22.355Z,67.60
2018-02-14T04:38:56.841Z,68.20
2018-02-14T04:41:30.692Z,68.50
2018-02-14T04:44:04.454Z,69.20
2018-02-14T04:46:38.204Z,69.60
2018-02-14T04:49:12.692Z,70.10
2018-02-14T04:51:46.857Z,70.10
2018-02-14T04:54:20.596Z,70.60
2018-02-14T04:56:55.211Z,72.00
2018-02-14T04:59:30.945Z,72.70
2018-02-14T05:02:04.645Z,72.60
2018-02-14T05:04:39.199Z,72.70
2018-02-14T05:07:13.089Z,72.70
2018-02-14T05:09:46.958Z,72.70
2018-02-14T05:12:21.515Z,73.30
2018-02-14T05:14:57.111Z,73.60
2018-02-14T05:17:31.021Z,73.50
2018-02-14T05:20:04.837Z,73.70
2018-02-14T05:22:38.725Z,74.50
2018-02-14T05:25:13.450Z,75.10
2018-02-14T05:27:47.164Z,74.30
2018-02-14T05:30:20.892Z,73.90
2018-02-14T05:32:54.660Z,73.50
2018-02-14T05:35:29.143Z,73.50
2018-02-14T05:38:03.836Z,73.50
2018-02-14T05:40:38.434Z,74.10
2018-02-14T05:43:14.979Z,74.50
2018-02-14T05:45:48.908Z,74.60
2018-02-14T05:48:22.776Z,75.60
2018-02-14T05:50:58.472Z,76.50
2018-02-14T05:53:34.124Z,76.50
2018-02-14T05:56:07.874Z,76.40
2018-02-14T05:58:41.643Z,76.50
2018-02-14T06:01:15.384Z,76.90
2018-02-14T06:03:49.146Z,78.10
2018-02-14T06:06:23.059Z,79.30
2018-02-14T06:08:57.685Z,80.30
2018-02-14T06:11:31.882Z,80.30
2018-02-14T06:14:05.600Z,79.80
2018-02-14T06:16:40.056Z,79.20
2018-02-14T06:19:16.410Z,79.10
2018-02-14T06:21:51.942Z,79.00
2018-02-14T06:24:27.473Z,78.90
2018-02-14T06:27:14.869Z,78.90
2018-02-14T06:29:49.636Z,79.00
2018-02-14T06:32:23.527Z,78.90
2018-02-14T06:34:57.483Z,78.90
2018-02-14T06:37:32.924Z,78.70
2018-02-14T06:40:06.738Z,78.20
2018-02-14T06:42:40.549Z,77.90
2018-02-14T06:45:14.436Z,78.20
2018-02-14T06:47:49.529Z,78.50
2018-02-14T06:50:25.602Z,78.70
2018-02-14T06:53:00.278Z,78.70
2018-02-14T06:55:34.900Z,79.40
2018-02-14T06:58:08.616Z,79.40
2018-02-14T07:00:43.700Z,80.00
2018-02-14T07:03:18.276Z,79.60
2018-02-14T07:05:52.934Z,79.20
2018-02-14T07:08:27.818Z,78.90
2018-02-14T07:11:01.648Z,78.40
2018-02-14T07:13:35.521Z,78.40
2018-02-14T07:16:10.014Z,77.10
2018-02-14T07:18:44.952Z,77.20
2018-02-14T07:21:18.744Z,75.90
2018-02-14T07:23:53.317Z,74.20
2018-02-14T07:26:27.153Z,74.70
2018-02-14T07:29:00.867Z,73.80
2018-02-14T07:31:35.053Z,72.60
2018-02-14T07:34:11.168Z,71.40
2018-02-14T07:36:47.384Z,71.10
2018-02-14T07:39:21.773Z,70.30
2018-02-14T07:41:57.013Z,70.00
2018-02-14T07:44:30.818Z,70.00
2018-02-14T07:47:04.532Z,69.40
2018-02-14T07:49:39.674Z,68.80
2018-02-14T07:52:14.980Z,67.50
2018-02-14T07:54:48.650Z,67.50
2018-02-14T07:57:23.064Z,66.90
2018-02-14T07:59:58.376Z,66.20
2018-02-14T08:02:32.106Z,66.20
2018-02-14T08:05:05.822Z,65.50
2018-02-14T08:07:40.133Z,64.90
2018-02-14T08:10:15.077Z,64.10
2018-02-14T08:12:48.946Z,64.10
2018-02-14T08:15:23.469Z,63.70
2018-02-14T08:17:57.884Z,62.50
2018-02-14T08:20:31.519Z,62.00
2018-02-14T08:23:05.324Z,61.60
2018-02-14T08:25:40.104Z,61.00
2018-02-14T08:28:13.760Z,60.50
2018-02-14T08:30:47.561Z,59.90
2018-02-14T08:33:21.369Z,59.60
2018-02-14T08:35:56.921Z,58.00
2018-02-14T08:38:31.286Z,58.00
2018-02-14T08:41:06.823Z,55.70
2018-02-14T08:43:41.242Z,55.60
2018-02-14T08:46:15.013Z,54.90
2018-02-14T08:48:48.709Z,54.30
2018-02-14T08:51:22.571Z,53.40
2018-02-14T08:53:56.308Z,52.50
2018-02-14T08:56:31.977Z,51.00
2018-02-14T08:59:11.392Z,51.00
2018-02-14T09:01:46.690Z,50.50
2018-02-14T09:04:21.825Z,49.30
2018-02-14T09:09:43.265Z,47.30
2018-02-14T09:12:21.667Z,47.10
2018-02-14T09:14:57.079Z,46.70
2018-02-14T09:17:30.932Z,46.50
2018-02-14T09:20:04.773Z,45.60
2018-02-14T09:22:38.549Z,45.10
2018-02-14T09:25:13.119Z,44.30
2018-02-14T09:27:47.001Z,44.30
2018-02-14T09:30:20.769Z,44.50
2018-02-14T09:32:55.586Z,43.10
2018-02-14T09:35:29.567Z,43.00
2018-02-14T09:38:04.328Z,42.50
2018-02-14T09:40:39.301Z,40.80
2018-02-14T09:43:12.975Z,39.40
2018-02-14T09:45:47.504Z,38.90
2018-02-14T09:48:21.332Z,39.30
2018-02-14T09:50:56.304Z,38.50
2018-02-14T09:53:31.779Z,38.90
2018-02-14T09:56:05.456Z,38.90
2018-02-14T09:58:39.232Z,36.90
2018-02-14T10:01:13.505Z,35.40
2018-02-14T10:03:48.690Z,34.20
2018-02-14T10:06:23.416Z,34.00
2018-02-14T10:08:57.793Z,33.00
2018-02-14T10:11:32.480Z,33.00
2018-02-14T10:14:07.045Z,32.70
2018-02-14T10:16:41.595Z,30.80
2018-02-14T10:19:17.492Z,30.80
2018-02-14T10:21:51.223Z,29.60
2018-02-14T10:24:25.139Z,28.10
2018-02-14T10:26:59.452Z,27.70
2018-02-14T10:29:33.082Z,27.80
2018-02-14T10:32:06.651Z,26.10
2018-02-14T10:34:42.471Z,26.10
2018-02-14T10:37:16.756Z,25.80
2018-02-14T10:39:52.314Z,24.10
2018-02-14T10:42:26.423Z,24.60
2018-02-14T10:44:59.968Z,24.40
2018-02-14T10:47:34.402Z,22.20
2018-02-14T10:50:08.415Z,21.60
2018-02-14T10:52:45.249Z,21.70
2018-02-14T10:55:18.989Z,20.60
2018-02-14T10:57:53.686Z,19.90
2018-02-14T11:00:33.410Z,19.60
2018-02-14T11:03:12.868Z,17.90
2018-02-14T11:05:52.462Z,19.10
2018-02-14T11:08:26.299Z,16.70
2018-02-14T11:11:00.304Z,16.80
2018-02-14T11:13:34.204Z,17.10
2018-02-14T11:16:13.233Z,17.30
2018-02-14T11:18:50.572Z,17.30
2018-02-14T11:21:25.166Z,18.20
2018-02-14T11:24:01.643Z,16.80
2018-02-14T11:26:37.619Z,17.20
2018-02-14T11:29:13.670Z,17.00
2018-02-14T11:31:52.200Z,16.10
2018-02-14T11:34:27.528Z,16.20
2018-02-14T11:37:03.761Z,15.10
2018-02-14T11:39:37.628Z,14.80
2018-02-14T11:42:11.949Z,14.80
2018-02-14T11:44:46.855Z,13.70
2018-02-14T11:47:20.548Z,13.60
2018-02-14T11:49:55.093Z,13.90
2018-02-14T11:52:29.964Z,14.50
2018-02-14T11:57:44.637Z,9.30
2018-02-14T12:00:19.089Z,9.30
2018-02-14T12:02:56.981Z,5.70
2018-02-14T12:05:31.084Z,7.50
2018-02-14T12:08:06.400Z,6.10
2018-02-14T12:10:41.097Z,4.90
2018-02-14T12:13:16.583Z,3.60
2018-02-14T12:15:52.701Z,6.60
2018-02-14T12:18:28.455Z,6.70
2018-02-14T12:21:02.283Z,5.30
2018-02-14T12:23:37.023Z,4.60
2018-02-14T12:26:10.707Z,3.50
2018-02-14T12:28:46.531Z,4.30
2018-02-14T12:31:21.712Z,5.10
2018-02-14T12:33:55.451Z,3.70
2018-02-14T12:36:30.302Z,4.10
2018-02-14T12:39:05.583Z,3.80
2018-02-14T12:41:41.340Z,2.90
2018-02-14T12:44:17.489Z,2.70
2018-02-14T12:46:52.291Z,3.70
2018-02-14T12:49:28.527Z,4.20
2018-02-14T12:52:03.420Z,5.10
2018-02-14T12:54:37.148Z,4.20
2018-02-14T12:57:12.713Z,5.50
2018-02-14T12:59:46.405Z,3.10
2018-02-14T13:02:20.137Z,3.80
2018-02-14T13:04:57.215Z,3.60
2018-02-14T13:07:32.869Z,4.00
2018-02-14T13:10:08.160Z,3.20
2018-02-14T13:12:43.004Z,2.10
2018-02-14T13:15:16.753Z,2.10
2018-02-14T13:17:51.265Z,1.20
2018-02-14T13:20:27.460Z,1.00
2018-02-14T13:23:01.225Z,1.00
2018-02-14T13:25:36.453Z,1.00
2018-02-14T13:28:10.360Z,1.00
2018-02-14T13:30:44.713Z,1.00
2018-02-14T13:33:19.184Z,1.00
2018-02-14T13:35:53.784Z,1.00
2018-02-14T13:38:28.361Z,1.00
2018-02-14T13:41:02.120Z,1.00
2018-02-14T13:43:35.893Z,1.00
2018-02-14T13:46:09.611Z,1.00
2018-02-14T13:48:44.435Z,1.00
2018-02-14T13:51:18.179Z,1.00
2018-02-14T13:53:52.821Z,1.00
2018-02-14T13:56:26.680Z,1.00
2018-02-14T13:59:00.642Z,1.00
2018-02-14T14:01:35.372Z,1.00
2018-02-14T14:04:09.211Z,1.00
2018-02-14T14:06:43.799Z,1.00
2018-02-14T14:09:18.416Z,1.00
2018-02-14T14:11:52.157Z,1.00
2018-02-14T14:14:25.925Z,1.00
2018-02-14T14:17:00.539Z,1.00
2018-02-14T14:19:34.704Z,1.00
2018-02-14T14:22:08.843Z,1.00
2018-02-14T14:24:42.677Z,1.00
2018-02-14T14:27:16.848Z,1.00
2018-02-14T14:29:50.554Z,1.00
2018-02-14T14:32:24.340Z,1.00
2018-02-14T14:34:58.755Z,1.00
2018-02-14T14:37:32.527Z,1.00
2018-02-14T14:40:06.552Z,1.00
2018-02-14T14:42:41.065Z,1.00
2018-02-14T14:45:14.922Z,1.00
2018-02-14T14:47:49.678Z,1.00
2018-02-14T14:50:24.351Z,1.00
2018-02-14T14:52:58.770Z,1.00
2018-02-14T14:55:32.934Z,1.00
2018-02-14T14:58:06.557Z,1.00
2018-02-14T15:00:41.872Z,1.00
2018-02-14T15:03:16.221Z,1.00
2018-02-14T15:05:52.212Z,1.00
2018-02-14T15:08:26.232Z,1.00
2018-02-14T15:11:00.917Z,1.00
2018-02-14T15:13:34.739Z,1.00
2018-02-14T15:16:08.508Z,1.00
2018-02-14T15:18:43.008Z,1.00
2018-02-14T15:21:17.462Z,1.00
2018-02-14T15:23:51.253Z,1.00
2018-02-14T15:26:25.725Z,1.00
2018-02-14T15:29:02.116Z,1.00
2018-02-14T15:31:35.861Z,1.00
2018-02-14T15:34:10.407Z,1.00
2018-02-14T15:36:44.224Z,1.00
2018-02-14T15:39:18.068Z,1.00
2018-02-14T15:41:51.940Z,1.00
2018-02-14T15:44:25.833Z,1.00
2018-02-14T15:47:02.016Z,1.00
2018-02-14T15:49:35.827Z,1.00
2018-02-14T15:52:09.566Z,1.00
2018-02-14T15:54:43.439Z,1.00
2018-02-14T15:57:17.031Z,1.00
2018-02-14T15:59:52.132Z,1.90
2018-02-14T16:02:26.054Z,1.60
2018-02-14T16:05:00.244Z,2.70
2018-02-14T16:07:33.992Z,3.40
2018-02-14T16:10:09.704Z,4.00
2018-02-14T16:12:44.937Z,4.90
2018-02-14T16:15:20.407Z,5.60
2018-02-14T16:17:54.942Z,6.10
2018-02-14T16:20:31.160Z,6.80
2018-02-14T16:23:06.318Z,7.30
2018-02-14T16:25:47.682Z,7.30
2018-02-14T16:28:27.821Z,8.10
2018-02-14T16:31:11.404Z,8.20
2018-02-14T16:36:32.437Z,8.70
2018-02-14T16:39:14.811Z,9.10
2018-02-14T16:41:49.374Z,9.70
2018-02-14T16:44:23.245Z,9.90
2018-02-14T16:46:57.144Z,10.30
2018-02-14T16:49:30.744Z,11.00
2018-02-14T16:52:04.552Z,11.20
2018-02-14T16:54:38.181Z,11.50
2018-02-14T16:57:12.147Z,12.00
2018-02-14T16:59:45.856Z,12.50
2018-02-14T17:02:19.716Z,12.90
2018-02-14T17:04:53.408Z,13.50
2018-02-14T17:07:27.036Z,13.40
2018-02-14T17:10:01.547Z,13.90
2018-02-14T17:12:35.229Z,14.50
2018-02-14T17:15:09.001Z,14.90
2018-02-14T17:17:44.473Z,15.40
2018-02-14T17:20:18.178Z,15.80
2018-02-14T17:22:52.891Z,16.00
2018-02-14T17:25:27.442Z,16.60
2018-02-14T17:28:01.336Z,16.60
2018-02-14T17:30:35.100Z,17.00
2018-02-14T17:33:09.436Z,18.20
2018-02-14T17:35:44.256Z,18.30
2018-02-14T17:38:17.977Z,18.20
2018-02-14T17:40:51.719Z,18.60
2018-02-14T17:43:25.541Z,18.90
2018-02-14T17:45:59.223Z,19.30
2018-02-14T17:48:33.241Z,19.30
2018-02-14T17:51:07.017Z,20.00
2018-02-14T17:53:41.044Z,20.00
2018-02-14T17:56:14.693Z,20.00
2018-02-14T17:58:49.409Z,19.90
2018-02-14T18:01:23.169Z,20.30
2018-02-14T18:04:01.390Z,21.10
2018-02-14T18:06:35.976Z,21.80
2018-02-14T18:09:09.694Z,23.10
2018-02-14T18:11:43.728Z,23.90
2018-02-14T18:14:17.480Z,25.10
2018-02-14T18:16:51.285Z,25.40
2018-02-14T18:19:26.713Z,25.90
2018-02-14T18:22:01.078Z,26.20
2018-02-14T18:24:34.986Z,26.20
2018-02-14T18:27:08.928Z,26.50
2018-02-14T18:29:42.581Z,26.50
2018-02-14T18:32:16.340Z,26.50
2018-02-14T18:34:50.845Z,26.50
2018-02-14T18:37:24.465Z,26.50
2018-02-14T18:39:58.238Z,26.70
2018-02-14T18:42:31.864Z,27.00
2018-02-14T18:45:05.511Z,27.20
2018-02-14T18:47:39.293Z,27.30
2018-02-14T18:50:13.040Z,27.70
2018-02-14T18:52:46.754Z,28.30
2018-02-14T18:55:20.470Z,28.20
2018-02-14T18:57:54.213Z,28.20
2018-02-14T19:00:28.927Z,29.00
2018-02-14T19:03:03.263Z,29.00
2018-02-14T19:05:37.880Z,29.50
2018-02-14T19:08:11.608Z,29.50
2018-02-14T19:10:45.948Z,29.50
2018-02-14T19:13:20.134Z,29.70
2018-02-14T19:15:54.064Z,29.50
2018-02-14T19:18:27.776Z,29.10
2018-02-14T19:21:06.126Z,28.70
2018-02-14T19:23:39.725Z,28.80
2018-02-14T19:26:13.561Z,28.60
2018-02-14T19:28:47.244Z,28.40
2018-02-14T19:31:20.980Z,28.90
2018-02-14T19:33:55.488Z,29.00
2018-02-14T19:36:30.096Z,29.10
2018-02-14T19:39:04.984Z,28.50
2018-02-14T19:41:40.745Z,28.20
2018-02-14T19:44:15.461Z,28.10
2018-02-14T19:46:50.389Z,27.50
2018-02-14T19:49:27.510Z,27.50
2018-02-14T19:52:01.214Z,27.70
2018-02-14T19:54:35.152Z,27.10
2018-02-14T19:57:09.713Z,27.30
2018-02-14T19:59:44.905Z,27.40
2018-02-14T20:02:18.621Z,27.40
2018-02-14T20:04:52.424Z,27.90
2018-02-14T20:07:26.124Z,27.70
2018-02-14T20:10:00.744Z,27.70
2018-02-14T20:12:37.941Z,27.70
2018-02-14T20:15:11.676Z,28.00
2018-02-14T20:17:46.222Z,28.00
2018-02-14T20:20:19.999Z,28.00
2018-02-14T20:22:53.768Z,28.20
2018-02-14T20:25:28.033Z,28.60
2018-02-14T20:28:01.855Z,28.80
2018-02-14T20:30:35.429Z,28.50
2018-02-14T20:33:10.466Z,28.60
2018-02-14T20:35:44.192Z,28.60
2018-02-14T20:38:18.785Z,29.30
2018-02-14T20:40:53.138Z,29.30
2018-02-14T20:43:26.732Z,29.40
2018-02-14T20:46:00.335Z,30.00
2018-02-14T20:48:34.760Z,29.50
2018-02-14T20:51:08.815Z,30.10
2018-02-14T20:53:42.626Z,30.00
2018-02-14T20:56:16.329Z,30.50
2018-02-14T20:58:50.103Z,30.30
2018-02-14T21:01:23.908Z,30.50
2018-02-14T21:03:57.665Z,30.20
2018-02-14T21:06:32.467Z,30.20
2018-02-14T21:09:06.248Z,29.90
2018-02-14T21:11:39.879Z,29.70
2018-02-14T21:14:14.364Z,29.70
2018-02-14T21:16:48.167Z,29.80
2018-02-14T21:19:21.904Z,30.90
2018-02-14T21:21:56.404Z,30.00
2018-02-14T21:24:30.932Z,30.00
2018-02-14T21:27:04.777Z,30.00
2018-02-14T21:29:39.261Z,30.40
2018-02-14T21:32:13.064Z,30.30
2018-02-14T21:34:46.834Z,30.70
2018-02-14T21:37:20.673Z,31.00
2018-02-14T21:39:55.110Z,30.90
2018-02-14T21:42:29.924Z,31.40
2018-02-14T21:45:03.736Z,32.60
2018-02-14T21:47:38.393Z,32.60
2018-02-14T21:50:12.029Z,32.90
2018-02-14T21:52:45.933Z,32.10
2018-02-14T21:55:19.616Z,32.00
2018-02-14T21:57:53.201Z,32.60
2018-02-14T22:00:26.952Z,32.50
2018-02-14T22:03:01.374Z,31.20
2018-02-14T22:05:35.130Z,31.10
2018-02-14T22:08:09.615Z,30.40
2018-02-14T22:10:43.297Z,30.40
2018-02-14T22:13:17.060Z,30.70
2018-02-14T22:15:50.852Z,30.50
2018-02-14T22:18:24.713Z,30.80
2018-02-14T22:21:00.484Z,30.40
2018-02-14T22:23:35.369Z,30.90
2018-02-14T22:26:09.912Z,30.70
2018-02-14T22:28:44.560Z,31.30
2018-02-14T22:31:18.551Z,31.30
2018-02-14T22:33:54.859Z,31.30
2018-02-14T22:36:30.956Z,31.90
2018-02-14T22:39:05.697Z,32.10
2018-02-14T22:41:40.635Z,31.80
2018-02-14T22:44:15.642Z,30.80
2018-02-14T22:46:51.036Z,31.00
2018-02-14T22:49:25.693Z,31.00
2018-02-14T22:51:59.448Z,30.50
2018-02-14T22:54:33.364Z,30.90
2018-02-14T22:57:07.416Z,30.20
2018-02-14T22:59:42.001Z,30.10
2018-02-14T23:02:15.642Z,30.70
2018-02-14T23:04:51.088Z,30.20
2018-02-14T23:07:26.595Z,30.40
2018-02-14T23:10:00.297Z,30.40
2018-02-14T23:12:35.392Z,30.40
2018-02-14T23:15:10.095Z,31.10
2018-02-14T23:17:45.001Z,30.10
2018-02-14T23:20:19.528Z,30.60
2018-02-14T23:22:53.232Z,30.50
2018-02-14T23:25:28.225Z,30.50
2018-02-14T23:28:01.932Z,30.30
2018-02-14T23:30:37.627Z,31.40
2018-02-14T23:33:11.297Z,31.40
2018-02-14T23:35:46.055Z,31.10
2018-02-14T23:38:19.656Z,30.80
2018-02-14T23:40:53.709Z,30.50
2018-02-14T23:43:27.472Z,30.40
2018-02-14T23:46:01.883Z,30.00
2018-02-14T23:48:35.492Z,30.10
2018-02-14T23:51:09.261Z,30.30
2018-02-14T23:53:45.864Z,30.40
2018-02-14T23:56:19.465Z,29.90
2018-02-14T23:58:53.385Z,29.70
